createdAt,value
2018-09-11T00:01:05.503Z,3.52
2018-09-11T00:03:32.471Z,3.40
2018-09-11T00:05:59.468Z,3.12
2018-09-11T00:08:26.466Z,3.30
2018-09-11T00:10:53.435Z,3.53
2018-09-11T00:13:20.410Z,3.35
2018-09-11T00:15:47.410Z,3.08
2018-09-11T00:18:14.383Z,3.40
2018-09-11T00:20:41.372Z,3.47
2018-09-11T00:23:08.370Z,3.40
2018-09-11T00:25:35.357Z,3.12
2018-09-11T00:28:02.374Z,3.47
2018-09-11T00:30:29.694Z,3.30
2018-09-11T00:32:56.685Z,3.55
2018-09-11T00:35:23.658Z,3.90
2018-09-11T00:37:50.653Z,4.05
2018-09-11T00:40:17.620Z,4.03
2018-09-11T00:42:44.593Z,3.83
2018-09-11T00:45:11.601Z,3.80
2018-09-11T00:47:38.571Z,4.10
2018-09-11T00:50:05.914Z,3.70
2018-09-11T00:52:32.896Z,3.90
2018-09-11T00:54:59.872Z,3.75
2018-09-11T00:57:26.867Z,3.80
2018-09-11T00:59:53.888Z,3.80
2018-09-11T01:02:20.875Z,3.90
2018-09-11T01:04:47.851Z,3.77
2018-09-11T01:07:14.862Z,3.93
2018-09-11T01:09:42.000Z,3.70
2018-09-11T01:12:08.971Z,3.83
2018-09-11T01:14:36.004Z,3.70
2018-09-11T01:17:02.995Z,3.70
2018-09-11T01:19:29.986Z,3.67
2018-09-11T01:21:56.979Z,3.70
2018-09-11T01:24:23.967Z,3.45
2018-09-11T01:26:50.990Z,3.50
2018-09-11T01:29:17.979Z,3.58
2018-09-11T01:31:44.964Z,3.67
2018-09-11T01:34:11.979Z,3.67
2018-09-11T01:36:38.989Z,3.90
2018-09-11T01:39:08.434Z,3.60
2018-09-11T01:41:35.423Z,3.60
2018-09-11T01:44:02.404Z,3.77
2018-09-11T01:46:29.379Z,3.37
2018-09-11T01:48:56.363Z,3.75
2018-09-11T01:51:23.561Z,3.70
2018-09-11T01:53:50.529Z,3.30
2018-09-11T01:56:17.522Z,3.58
2018-09-11T01:58:44.539Z,3.80
2018-09-11T02:01:11.603Z,3.58
2018-09-11T02:03:38.584Z,3.67
2018-09-11T02:06:06.067Z,3.95
2018-09-11T02:08:32.652Z,3.65
2018-09-11T02:10:59.624Z,3.70
2018-09-11T02:13:26.632Z,3.92
2018-09-11T02:15:53.613Z,3.67
2018-09-11T02:18:20.574Z,3.60
2018-09-11T02:20:47.591Z,3.90
2018-09-11T02:23:14.584Z,3.70
2018-09-11T02:25:41.564Z,3.83
2018-09-11T02:28:08.567Z,3.30
2018-09-11T02:30:35.561Z,3.70
2018-09-11T02:33:02.523Z,3.70
2018-09-11T02:35:29.520Z,3.67
2018-09-11T02:37:56.509Z,3.60
2018-09-11T02:40:23.482Z,3.50
2018-09-11T02:42:50.508Z,3.92
2018-09-11T02:45:19.555Z,3.65
2018-09-11T02:47:46.530Z,3.80
2018-09-11T02:50:13.545Z,3.90
2018-09-11T02:52:41.215Z,3.62
2018-09-11T02:55:08.238Z,3.80
2018-09-11T02:57:35.364Z,3.92
2018-09-11T03:00:02.359Z,3.80
2018-09-11T03:02:29.316Z,3.83
2018-09-11T03:04:56.304Z,3.72
2018-09-11T03:07:23.276Z,3.50
2018-09-11T03:09:50.330Z,3.85
2018-09-11T03:12:17.338Z,3.80
2018-09-11T03:14:44.322Z,3.70
2018-09-11T03:17:11.312Z,3.60
2018-09-11T03:19:38.327Z,3.77
2018-09-11T03:22:05.287Z,3.60
2018-09-11T03:24:32.253Z,3.60
2018-09-11T03:26:59.264Z,3.52
2018-09-11T03:29:26.288Z,3.72
2018-09-11T03:31:53.303Z,3.50
2018-09-11T03:34:20.301Z,3.98
2018-09-11T03:36:47.292Z,3.57
2018-09-11T03:39:14.246Z,3.87
2018-09-11T03:41:41.262Z,3.85
2018-09-11T03:44:08.270Z,3.60
2018-09-11T03:46:35.226Z,3.90
2018-09-11T03:49:02.241Z,4.08
2018-09-11T03:51:29.239Z,3.70
2018-09-11T03:53:56.963Z,3.85
2018-09-11T03:56:23.971Z,3.70
2018-09-11T03:58:50.951Z,3.85
2018-09-11T04:01:17.944Z,3.90
2018-09-11T04:03:44.955Z,3.85
2018-09-11T04:06:11.942Z,3.92
2018-09-11T04:08:38.904Z,4.17
2018-09-11T04:11:05.943Z,4.00
2018-09-11T04:13:32.931Z,4.30
2018-09-11T04:15:59.894Z,4.20
2018-09-11T04:18:26.902Z,4.30
2018-09-11T04:20:53.898Z,4.63
2018-09-11T04:23:20.862Z,4.12
2018-09-11T04:25:47.946Z,4.50
2018-09-11T04:28:14.862Z,4.30
2018-09-11T04:30:41.849Z,4.20
2018-09-11T04:33:08.855Z,4.60
2018-09-11T04:35:35.847Z,4.33
2018-09-11T04:38:02.811Z,4.50
2018-09-11T04:40:29.804Z,4.40
2018-09-11T04:42:56.809Z,4.12
2018-09-11T04:45:23.741Z,4.55
2018-09-11T04:47:50.729Z,4.55
2018-09-11T04:50:17.711Z,4.50
2018-09-11T04:52:44.681Z,4.35
2018-09-11T04:55:12.206Z,4.50
2018-09-11T04:57:39.170Z,4.05
2018-09-11T05:00:06.283Z,4.40
2018-09-11T05:02:33.284Z,4.50
2018-09-11T05:05:00.260Z,4.20
2018-09-11T05:07:27.210Z,4.23
2018-09-11T05:09:54.197Z,4.33
2018-09-11T05:12:21.185Z,4.20
2018-09-11T05:14:48.163Z,4.80
2018-09-11T05:17:15.212Z,4.53
2018-09-11T05:19:42.180Z,4.63
2018-09-11T05:22:09.189Z,4.90
2018-09-11T05:24:36.184Z,4.20
2018-09-11T05:27:03.152Z,4.50
2018-09-11T05:29:30.142Z,4.60
2018-09-11T05:31:57.138Z,4.60
2018-09-11T05:34:24.231Z,4.80
2018-09-11T05:36:51.547Z,4.55
2018-09-11T05:39:18.549Z,4.57
2018-09-11T05:41:45.535Z,7.40
2018-09-11T05:44:12.508Z,5.90
2018-09-11T05:46:39.496Z,4.78
2018-09-11T05:49:06.480Z,7.78
2018-09-11T05:51:33.443Z,6.40
2018-09-11T05:54:00.439Z,5.80
2018-09-11T05:56:27.569Z,11.08
2018-09-11T05:58:54.563Z,4.50
2018-09-11T06:01:21.563Z,4.70
2018-09-11T06:03:48.549Z,4.67
2018-09-11T06:06:15.542Z,4.72
2018-09-11T06:08:42.648Z,4.78
2018-09-11T06:11:09.646Z,4.75
2018-09-11T06:13:36.615Z,4.67
2018-09-11T06:16:03.619Z,4.67
2018-09-11T06:18:30.587Z,4.67
2018-09-11T06:20:57.570Z,4.00
2018-09-11T06:23:24.564Z,4.70
2018-09-11T06:25:51.626Z,4.45
2018-09-11T06:28:18.522Z,4.22
2018-09-11T06:30:45.514Z,4.30
2018-09-11T06:33:12.484Z,4.07
2018-09-11T06:35:39.469Z,4.50
2018-09-11T06:38:06.442Z,4.50
2018-09-11T06:40:33.447Z,4.47
2018-09-11T06:43:00.409Z,4.53
2018-09-11T06:45:27.417Z,4.22
2018-09-11T06:47:54.448Z,4.20
2018-09-11T06:50:21.369Z,4.12
2018-09-11T06:52:48.386Z,4.40
2018-09-11T06:55:15.428Z,4.00
2018-09-11T06:57:42.854Z,4.83
2018-09-11T07:00:09.866Z,4.22
2018-09-11T07:02:36.948Z,4.05
2018-09-11T07:05:03.905Z,4.13
2018-09-11T07:07:30.979Z,4.10
2018-09-11T07:09:58.124Z,4.00
2018-09-11T07:12:25.097Z,3.72
2018-09-11T07:14:52.099Z,3.85
2018-09-11T07:19:46.220Z,4.10
2018-09-11T07:22:13.112Z,3.85
2018-09-11T07:24:40.094Z,4.05
2018-09-11T07:27:07.058Z,3.98
2018-09-11T07:29:34.065Z,4.10
2018-09-11T07:32:01.044Z,4.07
2018-09-11T07:34:28.030Z,4.33
2018-09-11T07:36:55.035Z,4.00
2018-09-11T07:39:22.007Z,4.00
2018-09-11T07:41:49.074Z,4.28
2018-09-11T07:44:16.186Z,5.05
2018-09-11T07:46:43.156Z,3.80
2018-09-11T07:49:10.154Z,4.12
2018-09-11T07:51:37.311Z,3.95
2018-09-11T07:54:04.282Z,3.90
2018-09-11T07:56:31.247Z,4.00
2018-09-11T07:58:58.735Z,3.80
2018-09-11T08:01:25.742Z,9.70
2018-09-11T08:03:52.706Z,4.62
2018-09-11T08:06:19.718Z,3.92
2018-09-11T08:08:46.848Z,4.50
2018-09-11T08:11:14.223Z,4.40
2018-09-11T08:13:41.330Z,4.17
2018-09-11T08:16:08.324Z,3.72
2018-09-11T08:18:35.262Z,3.47
2018-09-11T08:21:02.254Z,3.90
2018-09-11T08:23:29.247Z,3.98
2018-09-11T08:25:57.074Z,3.80
2018-09-11T08:28:25.753Z,3.60
2018-09-11T08:30:52.752Z,3.77
2018-09-11T08:33:19.718Z,3.90
2018-09-11T08:35:46.711Z,3.77
2018-09-11T08:38:13.669Z,3.80
2018-09-11T08:40:40.674Z,4.00
2018-09-11T08:43:07.650Z,3.70
2018-09-11T08:45:34.626Z,3.67
2018-09-11T08:48:01.631Z,3.60
2018-09-11T08:50:28.631Z,3.42
2018-09-11T08:52:55.594Z,3.30
2018-09-11T08:55:22.579Z,3.30
2018-09-11T08:57:49.566Z,3.50
2018-09-11T09:00:16.850Z,3.37
2018-09-11T09:02:43.858Z,3.50
2018-09-11T09:05:10.848Z,3.40
2018-09-11T09:07:37.848Z,3.22
2018-09-11T09:10:04.979Z,3.55
2018-09-11T09:12:32.052Z,3.20
2018-09-11T09:14:59.125Z,3.27
2018-09-11T09:17:26.127Z,3.50
2018-09-11T09:19:53.144Z,3.62
2018-09-11T09:22:20.191Z,3.30
2018-09-11T09:24:47.179Z,3.40
2018-09-11T09:27:14.230Z,3.20
2018-09-11T09:29:41.136Z,3.30
2018-09-11T09:32:08.147Z,3.22
2018-09-11T09:34:35.170Z,3.67
2018-09-11T09:37:02.375Z,3.10
2018-09-11T09:39:29.239Z,2.92
2018-09-11T09:41:56.240Z,2.40
2018-09-11T09:44:23.226Z,2.83
2018-09-11T09:46:50.191Z,2.80
2018-09-11T09:49:17.190Z,2.70
2018-09-11T09:51:44.150Z,3.30
2018-09-11T09:54:11.135Z,2.77
2018-09-11T09:56:38.144Z,3.10
2018-09-11T09:59:05.137Z,3.02
2018-09-11T10:01:38.640Z,2.93
2018-09-11T10:04:05.622Z,3.10
2018-09-11T10:06:32.583Z,2.87
2018-09-11T10:08:59.617Z,2.75
2018-09-11T10:11:26.594Z,2.70
2018-09-11T10:13:53.598Z,2.70
2018-09-11T10:16:20.678Z,2.65
2018-09-11T10:18:47.704Z,2.90
2018-09-11T10:21:14.670Z,3.00
2018-09-11T10:23:41.792Z,2.98
2018-09-11T10:26:08.878Z,3.10
2018-09-11T10:28:35.844Z,3.00
2018-09-11T10:31:02.851Z,3.00
2018-09-11T10:33:29.873Z,3.00
2018-09-11T10:36:04.428Z,2.90
2018-09-11T10:38:31.158Z,3.00
2018-09-11T10:40:58.145Z,2.98
2018-09-11T10:43:25.143Z,2.65
2018-09-11T10:45:52.133Z,3.00
2018-09-11T10:48:19.108Z,2.90
2018-09-11T10:50:46.106Z,3.02
2018-09-11T10:53:13.077Z,2.90
2018-09-11T10:55:40.084Z,2.83
2018-09-11T10:58:07.080Z,2.80
2018-09-11T11:00:34.179Z,3.03
2018-09-11T11:03:01.710Z,2.87
2018-09-11T11:05:28.743Z,2.80
2018-09-11T11:07:55.747Z,2.93
2018-09-11T11:10:22.743Z,2.75
2018-09-11T11:12:49.731Z,2.92
2018-09-11T11:15:16.710Z,2.90
2018-09-11T11:17:43.695Z,2.70
2018-09-11T11:20:10.674Z,2.60
2018-09-11T11:22:37.659Z,2.92
2018-09-11T11:25:04.663Z,2.80
2018-09-11T11:27:31.737Z,2.77
2018-09-11T11:29:58.882Z,2.98
2018-09-11T11:32:25.875Z,2.80
2018-09-11T11:34:52.934Z,2.87
2018-09-11T11:37:20.058Z,2.90
2018-09-11T11:39:46.883Z,2.80
2018-09-11T11:42:13.906Z,2.92
2018-09-11T11:44:40.855Z,2.70
2018-09-11T11:47:07.874Z,2.80
2018-09-11T11:49:34.903Z,2.77
2018-09-11T11:52:01.948Z,2.80
2018-09-11T11:54:28.951Z,2.95
2018-09-11T11:56:55.961Z,2.70
2018-09-11T11:59:22.933Z,2.70
2018-09-11T12:01:49.912Z,2.70
2018-09-11T12:04:17.213Z,2.60
2018-09-11T12:06:44.166Z,2.60
2018-09-11T12:09:11.873Z,2.92
2018-09-11T12:11:39.047Z,2.67
2018-09-11T12:14:06.023Z,2.90
2018-09-11T12:16:33.026Z,2.87
2018-09-11T12:19:00.023Z,2.62
2018-09-11T12:21:27.009Z,2.80
2018-09-11T12:23:53.996Z,2.70
2018-09-11T12:26:21.087Z,2.90
2018-09-11T12:28:48.162Z,3.00
2018-09-11T12:31:15.255Z,2.70
2018-09-11T12:33:42.152Z,2.60
2018-09-11T12:36:09.113Z,2.70
2018-09-11T12:38:36.116Z,2.55
2018-09-11T12:41:03.354Z,10.30
2018-09-11T12:43:30.361Z,13.22
2018-09-11T12:45:57.510Z,7.65
2018-09-11T12:48:24.569Z,12.75
2018-09-11T12:50:51.378Z,3.85
2018-09-11T12:53:18.424Z,3.47
2018-09-11T12:55:45.387Z,3.83
2018-09-11T12:58:12.805Z,4.70
2018-09-11T13:00:39.880Z,3.25
2018-09-11T13:03:06.948Z,3.80
2018-09-11T13:05:34.300Z,3.30
2018-09-11T13:08:01.268Z,2.90
2018-09-11T13:10:28.356Z,2.70
2018-09-11T13:12:55.427Z,3.37
2018-09-11T13:15:22.573Z,2.60
2018-09-11T13:17:49.546Z,2.87
2018-09-11T13:20:16.506Z,2.75
2018-09-11T13:22:43.613Z,2.47
2018-09-11T13:25:32.628Z,2.60
2018-09-11T13:27:54.238Z,2.75
2018-09-11T13:30:21.371Z,2.55
2018-09-11T13:32:48.418Z,2.42
2018-09-11T13:35:15.454Z,2.67
2018-09-11T13:37:42.431Z,2.65
2018-09-11T13:40:09.496Z,2.58
2018-09-11T13:42:36.495Z,2.50
2018-09-11T13:45:03.591Z,2.50
2018-09-11T13:47:31.045Z,2.55
2018-09-11T13:49:57.914Z,2.45
2018-09-11T13:52:25.112Z,2.47
2018-09-11T13:54:52.114Z,2.50
2018-09-11T13:57:19.103Z,2.30
2018-09-11T13:59:46.107Z,2.58
2018-09-11T14:02:13.211Z,2.70
2018-09-11T14:04:40.191Z,2.70
2018-09-11T14:07:07.667Z,2.67
2018-09-11T14:09:34.659Z,2.50
2018-09-11T14:12:01.655Z,2.85
2018-09-11T14:14:28.654Z,2.50
2018-09-11T14:16:55.705Z,2.70
2018-09-11T14:19:22.672Z,2.42
2018-09-11T14:21:49.656Z,2.60
2018-09-11T14:24:16.651Z,2.40
2018-09-11T14:26:43.636Z,2.30
2018-09-11T14:29:10.606Z,2.67
2018-09-11T14:31:37.655Z,2.42
2018-09-11T14:34:04.863Z,2.40
2018-09-11T14:36:31.896Z,2.72
2018-09-11T14:38:58.920Z,2.62
2018-09-11T14:41:25.960Z,2.60
2018-09-11T14:43:52.967Z,2.62
2018-09-11T14:46:19.984Z,2.90
2018-09-11T14:48:46.946Z,2.45
2018-09-11T14:51:13.910Z,2.40
2018-09-11T14:53:40.966Z,2.55
2018-09-11T14:56:07.933Z,2.65
2018-09-11T14:58:34.920Z,2.77
2018-09-11T15:01:01.917Z,2.40
2018-09-11T15:03:28.883Z,2.35
2018-09-11T15:05:55.908Z,2.80
2018-09-11T15:08:23.477Z,2.70
2018-09-11T15:10:50.457Z,2.50
2018-09-11T15:13:17.523Z,2.60
2018-09-11T15:15:44.512Z,2.62
2018-09-11T15:18:11.507Z,2.50
2018-09-11T15:20:38.516Z,2.70
2018-09-11T15:23:05.638Z,2.50
2018-09-11T15:25:32.619Z,2.57
2018-09-11T15:27:59.868Z,2.40
2018-09-11T15:30:26.998Z,2.60
2018-09-11T15:32:54.216Z,2.40
2018-09-11T15:35:21.199Z,2.60
2018-09-11T15:37:48.220Z,2.40
2018-09-11T15:40:15.196Z,2.65
2018-09-11T15:42:42.322Z,3.20
2018-09-11T15:45:09.345Z,2.70
2018-09-11T15:47:36.325Z,2.80
2018-09-11T15:50:03.296Z,2.55
2018-09-11T15:52:30.303Z,3.10
2018-09-11T15:54:57.262Z,8.38
2018-09-11T15:57:24.243Z,6.08
2018-09-11T15:59:51.226Z,8.50
2018-09-11T16:02:18.178Z,20.68
2018-09-11T16:04:45.136Z,29.50
2018-09-11T16:07:12.127Z,7.50
2018-09-11T16:09:39.711Z,5.87
2018-09-11T16:12:06.674Z,6.05
2018-09-11T16:14:33.675Z,8.48
2018-09-11T16:17:00.656Z,6.90
2018-09-11T16:19:27.603Z,9.58
2018-09-11T16:21:54.586Z,4.53
2018-09-11T16:24:21.561Z,5.58
2018-09-11T16:26:48.526Z,3.42
2018-09-11T16:29:15.528Z,6.40
2018-09-11T16:31:42.488Z,3.05
2018-09-11T16:34:09.445Z,4.12
2018-09-11T16:36:36.441Z,3.52
2018-09-11T16:39:06.514Z,3.80
2018-09-11T16:41:37.720Z,4.07
2018-09-11T16:44:04.704Z,2.95
2018-09-11T16:46:31.725Z,2.90
2018-09-11T16:48:58.686Z,3.00
2018-09-11T16:51:25.657Z,3.08
2018-09-11T16:53:52.644Z,3.10
2018-09-11T16:56:19.638Z,3.10
2018-09-11T16:58:46.608Z,3.00
2018-09-11T17:01:13.592Z,3.05
2018-09-11T17:03:40.571Z,3.40
2018-09-11T17:06:07.542Z,3.00
2018-09-11T17:08:34.510Z,3.15
2018-09-11T17:11:01.961Z,3.33
2018-09-11T17:13:28.931Z,3.00
2018-09-11T17:15:55.922Z,3.22
2018-09-11T17:18:22.919Z,3.20
2018-09-11T17:20:49.907Z,3.15
2018-09-11T17:23:16.875Z,3.10
2018-09-11T17:25:43.864Z,3.00
2018-09-11T17:28:10.851Z,3.00
2018-09-11T17:30:37.835Z,3.00
2018-09-11T17:33:04.816Z,3.30
2018-09-11T17:35:31.777Z,3.10
2018-09-11T17:37:58.733Z,3.15
2018-09-11T17:40:25.711Z,3.00
2018-09-11T17:42:52.839Z,3.20
2018-09-11T17:45:19.731Z,3.00
2018-09-11T17:47:46.742Z,3.12
2018-09-11T17:50:13.719Z,3.27
2018-09-11T17:52:40.676Z,3.20
2018-09-11T17:55:07.657Z,7.03
2018-09-11T17:57:34.653Z,4.03
2018-09-11T18:00:01.654Z,4.85
2018-09-11T18:02:28.788Z,5.08
2018-09-11T18:04:55.812Z,3.90
2018-09-11T18:07:22.866Z,3.70
2018-09-11T18:09:49.864Z,5.42
2018-09-11T18:12:17.015Z,4.67
2018-09-11T18:14:44.003Z,6.53
2018-09-11T18:17:10.990Z,6.53
2018-09-11T18:19:38.014Z,12.13
2018-09-11T18:22:05.027Z,6.60
2018-09-11T18:24:32.007Z,6.10
2018-09-11T18:26:58.978Z,4.75
2018-09-11T18:29:25.932Z,4.92
2018-09-11T18:31:52.950Z,4.08
2018-09-11T18:34:20.047Z,4.50
2018-09-11T18:36:47.051Z,4.50
2018-09-11T18:39:14.030Z,4.62
2018-09-11T18:41:41.006Z,4.70
2018-09-11T18:44:07.976Z,4.53
2018-09-11T18:46:34.975Z,4.40
2018-09-11T18:49:01.957Z,6.47
2018-09-11T18:51:28.979Z,5.50
2018-09-11T18:53:55.918Z,4.22
2018-09-11T18:56:22.885Z,4.35
2018-09-11T18:58:49.856Z,4.83
2018-09-11T19:01:16.848Z,5.10
2018-09-11T19:03:43.856Z,5.25
2018-09-11T19:06:10.802Z,6.70
2018-09-11T19:08:37.828Z,5.20
2018-09-11T19:11:04.802Z,5.03
2018-09-11T19:13:33.294Z,4.40
2018-09-11T19:16:00.278Z,4.10
2018-09-11T19:18:27.297Z,3.67
2018-09-11T19:20:54.278Z,4.12
2018-09-11T19:23:21.387Z,3.87
2018-09-11T19:25:48.362Z,3.90
2018-09-11T19:28:15.340Z,4.35
2018-09-11T19:30:42.343Z,4.08
2018-09-11T19:33:09.395Z,3.93
2018-09-11T19:35:36.382Z,4.03
2018-09-11T19:38:03.370Z,4.05
2018-09-11T19:40:30.362Z,3.85
2018-09-11T19:42:57.353Z,4.20
2018-09-11T19:45:24.323Z,4.20
2018-09-11T19:47:51.343Z,3.62
2018-09-11T19:50:18.344Z,3.80
2018-09-11T19:52:45.297Z,3.85
2018-09-11T19:55:12.280Z,3.80
2018-09-11T19:57:39.247Z,4.08
2018-09-11T20:00:06.395Z,4.35
2018-09-11T20:02:33.382Z,4.42
2018-09-11T20:05:00.448Z,4.15
2018-09-11T20:07:27.360Z,4.20
2018-09-11T20:09:54.388Z,4.40
2018-09-11T20:12:21.382Z,3.90
2018-09-11T20:14:48.651Z,4.00
2018-09-11T20:17:15.636Z,4.35
2018-09-11T20:19:42.622Z,4.10
2018-09-11T20:22:10.848Z,3.95
2018-09-11T20:24:37.811Z,3.80
2018-09-11T20:27:04.843Z,4.10
2018-09-11T20:29:31.896Z,3.67
2018-09-11T20:31:58.911Z,4.53
2018-09-11T20:34:25.867Z,4.28
2018-09-11T20:36:52.910Z,4.15
2018-09-11T20:39:19.907Z,3.98
2018-09-11T20:41:46.909Z,3.70
2018-09-11T20:44:13.927Z,3.95
2018-09-11T20:46:42.099Z,4.00
2018-09-11T20:49:09.088Z,4.20
2018-09-11T20:51:36.131Z,4.33
2018-09-11T20:54:03.085Z,3.90
2018-09-11T20:56:30.154Z,4.10
2018-09-11T20:58:57.139Z,3.80
2018-09-11T21:01:24.421Z,4.30
2018-09-11T21:03:52.572Z,4.20
2018-09-11T21:06:20.201Z,4.22
2018-09-11T21:08:47.200Z,4.40
2018-09-11T21:11:15.472Z,4.37
2018-09-11T21:13:42.885Z,4.15
2018-09-11T21:16:10.070Z,4.10
2018-09-11T21:18:37.053Z,4.22
2018-09-11T21:21:05.941Z,4.37
2018-09-11T21:23:32.923Z,4.10
2018-09-11T21:26:00.050Z,4.17
2018-09-11T21:28:27.051Z,4.60
2018-09-11T21:30:54.352Z,4.42
2018-09-11T21:33:23.550Z,4.58
2018-09-11T21:35:50.495Z,4.20
2018-09-11T21:38:17.459Z,4.50
2018-09-11T21:40:44.422Z,4.30
2018-09-11T21:43:11.429Z,4.25
2018-09-11T21:45:38.419Z,4.40
2018-09-11T21:48:05.374Z,4.33
2018-09-11T21:50:32.397Z,4.20
2018-09-11T21:52:59.370Z,4.35
2018-09-11T21:55:26.375Z,4.33
2018-09-11T21:57:53.347Z,4.53
2018-09-11T22:00:20.406Z,4.60
2018-09-11T22:02:47.372Z,4.35
2018-09-11T22:05:14.360Z,4.42
2018-09-11T22:07:41.374Z,4.00
2018-09-11T22:10:09.406Z,4.17
2018-09-11T22:12:36.384Z,4.15
2018-09-11T22:15:03.466Z,4.17
2018-09-11T22:17:30.895Z,4.20
2018-09-11T22:19:57.898Z,4.35
2018-09-11T22:22:24.884Z,4.10
2018-09-11T22:24:51.865Z,4.08
2018-09-11T22:27:18.802Z,4.53
2018-09-11T22:29:45.762Z,4.47
2018-09-11T22:32:12.729Z,4.17
2018-09-11T22:34:39.714Z,4.22
2018-09-11T22:37:06.716Z,4.47
2018-09-11T22:39:33.653Z,4.22
2018-09-11T22:42:00.651Z,4.33
2018-09-11T22:44:27.641Z,4.17
2018-09-11T22:46:54.622Z,4.47
2018-09-11T22:49:21.617Z,4.47
2018-09-11T22:51:48.583Z,4.22
2018-09-11T22:54:15.559Z,4.30
2018-09-11T22:56:42.552Z,4.40
2018-09-11T22:59:09.535Z,4.55
2018-09-11T23:01:36.532Z,3.98
2018-09-11T23:04:03.525Z,4.03
2018-09-11T23:06:30.522Z,4.45
2018-09-11T23:08:57.492Z,4.20
2018-09-11T23:11:24.487Z,4.22
2018-09-11T23:13:51.541Z,4.30
2018-09-11T23:16:18.515Z,4.25
2018-09-11T23:18:46.010Z,4.30
2018-09-11T23:21:13.035Z,4.40
2018-09-11T23:23:40.019Z,4.12
2018-09-11T23:26:07.053Z,4.47
2018-09-11T23:28:34.037Z,4.40
2018-09-11T23:31:00.991Z,4.57
2018-09-11T23:33:28.046Z,4.37
2018-09-11T23:35:55.045Z,4.72
2018-09-11T23:38:22.016Z,4.35
2018-09-11T23:40:49.004Z,4.30
2018-09-11T23:43:15.984Z,4.50
2018-09-11T23:45:43.012Z,4.30
2018-09-11T23:48:09.997Z,4.33
2018-09-11T23:50:36.972Z,4.28
2018-09-11T23:53:03.986Z,4.42
2018-09-11T23:55:31.016Z,4.30
2018-09-11T23:57:58.395Z,4.53
